createdAt,value
2019-05-19T00:02:19.851Z,14.55
2019-05-19T00:07:21.980Z,14.43
2019-05-19T00:12:24.149Z,14.28
2019-05-19T00:17:26.006Z,14.22
2019-05-19T00:22:28.138Z,14.13
2019-05-19T00:27:30.334Z,14.03
2019-05-19T00:32:32.415Z,13.94
2019-05-19T00:37:34.510Z,13.93
2019-05-19T00:42:36.486Z,13.71
2019-05-19T00:47:38.501Z,13.81
2019-05-19T00:52:40.586Z,13.93
2019-05-19T00:57:43.076Z,13.84
2019-05-19T01:02:45.275Z,13.91
2019-05-19T01:07:47.253Z,13.77
2019-05-19T01:12:49.293Z,13.81
2019-05-19T01:17:51.519Z,13.44
2019-05-19T01:22:53.658Z,13.26
2019-05-19T01:27:56.832Z,13.17
2019-05-19T01:32:58.814Z,13.31
2019-05-19T01:38:00.998Z,13.31
2019-05-19T01:43:03.696Z,13.28
2019-05-19T01:48:05.822Z,13.38
2019-05-19T01:53:07.985Z,13.28
2019-05-19T01:58:10.212Z,13.13
2019-05-19T02:03:12.383Z,13.13
2019-05-19T02:08:14.399Z,13.19
2019-05-19T02:13:16.374Z,13.08
2019-05-19T02:18:18.482Z,12.87
2019-05-19T02:23:20.576Z,12.67
2019-05-19T02:28:22.797Z,12.66
2019-05-19T02:33:25.127Z,12.67
2019-05-19T02:38:27.140Z,12.71
2019-05-19T02:43:29.355Z,12.72
2019-05-19T02:48:32.230Z,12.53
2019-05-19T02:53:34.463Z,12.40
2019-05-19T02:58:37.389Z,12.42
2019-05-19T03:03:39.409Z,12.47
2019-05-19T03:08:41.451Z,12.52
2019-05-19T03:13:43.529Z,12.59
2019-05-19T03:18:45.611Z,12.68
2019-05-19T03:23:47.696Z,12.58
2019-05-19T03:28:49.683Z,12.43
2019-05-19T03:33:56.322Z,12.18
2019-05-19T03:38:58.398Z,12.31
2019-05-19T03:44:01.182Z,12.26
2019-05-19T03:49:03.170Z,12.26
2019-05-19T03:54:05.273Z,12.33
2019-05-19T03:59:07.306Z,12.34
2019-05-19T04:04:09.350Z,12.55
2019-05-19T04:09:11.498Z,12.82
2019-05-19T04:14:13.507Z,12.93
2019-05-19T04:19:15.721Z,13.14
2019-05-19T04:24:17.599Z,13.39
2019-05-19T04:29:19.699Z,13.37
2019-05-19T04:34:21.666Z,13.55
2019-05-19T04:39:23.814Z,13.62
2019-05-19T04:44:25.923Z,13.93
2019-05-19T04:49:28.037Z,14.28
2019-05-19T04:54:30.166Z,14.74
2019-05-19T04:59:32.193Z,15.22
2019-05-19T05:04:34.075Z,15.22
2019-05-19T05:09:36.134Z,15.11
2019-05-19T05:14:38.285Z,15.30
2019-05-19T05:19:40.462Z,15.85
2019-05-19T05:24:42.543Z,16.29
2019-05-19T05:29:44.924Z,16.69
2019-05-19T05:34:47.031Z,17.02
2019-05-19T05:39:49.144Z,17.34
2019-05-19T05:44:51.408Z,17.77
2019-05-19T05:49:53.721Z,18.19
2019-05-19T05:54:55.833Z,18.63
2019-05-19T05:59:57.839Z,18.88
2019-05-19T06:04:59.951Z,19.25
2019-05-19T06:10:02.199Z,19.13
2019-05-19T06:15:05.487Z,19.07
2019-05-19T06:20:09.205Z,19.26
2019-05-19T06:25:15.747Z,19.26
2019-05-19T06:30:18.321Z,19.05
2019-05-19T06:35:20.528Z,19.06
2019-05-19T06:40:22.918Z,19.05
2019-05-19T06:45:25.029Z,19.23
2019-05-19T06:50:27.433Z,19.22
2019-05-19T06:55:29.559Z,19.30
2019-05-19T07:00:31.666Z,19.96
2019-05-19T07:05:33.770Z,20.66
2019-05-19T07:10:36.130Z,21.12
2019-05-19T07:15:37.990Z,21.46
2019-05-19T07:20:40.154Z,21.90
2019-05-19T07:25:42.517Z,22.15
2019-05-19T07:30:44.679Z,22.20
2019-05-19T07:35:47.054Z,22.46
2019-05-19T07:40:49.330Z,22.70
2019-05-19T07:45:51.444Z,23.29
2019-05-19T07:50:53.628Z,23.90
2019-05-19T07:55:55.867Z,24.23
2019-05-19T08:00:57.667Z,24.53
2019-05-19T08:05:59.680Z,24.87
2019-05-19T08:11:01.750Z,25.10
2019-05-19T08:16:03.966Z,25.27
2019-05-19T08:21:05.845Z,25.46
2019-05-19T08:26:08.083Z,24.39
2019-05-19T08:31:10.048Z,24.28
2019-05-19T08:36:12.207Z,23.93
2019-05-19T08:41:15.521Z,23.68
2019-05-19T08:46:17.557Z,23.74
2019-05-19T08:51:21.088Z,23.76
2019-05-19T08:56:23.564Z,23.89
2019-05-19T09:01:26.160Z,24.34
2019-05-19T09:06:30.361Z,24.25
2019-05-19T09:11:32.755Z,23.90
2019-05-19T09:16:35.110Z,23.90
2019-05-19T09:21:37.550Z,23.93
2019-05-19T09:26:40.567Z,24.39
2019-05-19T09:31:44.316Z,24.80
2019-05-19T09:36:46.853Z,25.21
2019-05-19T09:41:49.470Z,25.88
2019-05-19T09:46:52.119Z,26.62
2019-05-19T09:51:54.747Z,27.11
2019-05-19T09:56:57.336Z,27.54
2019-05-19T10:01:59.980Z,27.05
2019-05-19T10:07:03.303Z,27.03
2019-05-19T10:12:07.454Z,27.29
2019-05-19T10:17:10.195Z,27.57
2019-05-19T10:22:14.712Z,27.81
2019-05-19T10:27:17.224Z,27.94
2019-05-19T10:32:19.766Z,27.70
2019-05-19T10:37:22.295Z,27.31
2019-05-19T10:42:24.811Z,27.13
2019-05-19T10:47:28.959Z,27.27
2019-05-19T10:52:31.150Z,27.27
2019-05-19T10:57:33.152Z,26.70
2019-05-19T11:02:35.263Z,26.19
2019-05-19T11:07:37.254Z,26.70
2019-05-19T11:12:39.422Z,26.91
2019-05-19T11:17:41.305Z,27.08
2019-05-19T11:22:43.463Z,26.92
2019-05-19T11:27:45.645Z,26.46
2019-05-19T11:32:47.363Z,26.64
2019-05-19T11:37:49.330Z,26.44
2019-05-19T11:42:51.356Z,26.57
2019-05-19T11:47:53.264Z,26.96
2019-05-19T11:52:55.439Z,27.24
2019-05-19T11:57:57.947Z,27.39
2019-05-19T12:03:00.401Z,27.42
2019-05-19T12:08:02.537Z,27.24
2019-05-19T12:13:05.955Z,27.01
2019-05-19T12:18:08.150Z,26.87
2019-05-19T12:23:10.685Z,26.35
2019-05-19T12:28:12.888Z,25.86
2019-05-19T12:33:16.167Z,25.54
2019-05-19T12:38:18.122Z,25.61
2019-05-19T12:43:20.399Z,25.46
2019-05-19T12:48:22.565Z,25.54
2019-05-19T12:53:24.469Z,25.54
2019-05-19T12:58:26.717Z,25.18
2019-05-19T13:03:28.921Z,25.10
2019-05-19T13:08:31.120Z,25.15
2019-05-19T13:13:33.131Z,25.23
2019-05-19T13:18:36.902Z,25.11
2019-05-19T13:23:39.248Z,25.15
2019-05-19T13:28:41.627Z,25.26
2019-05-19T13:33:43.802Z,25.28
2019-05-19T13:38:46.121Z,25.35
2019-05-19T13:43:49.362Z,25.22
2019-05-19T13:48:51.206Z,25.10
2019-05-19T13:53:53.222Z,24.96
2019-05-19T13:58:56.475Z,25.12
2019-05-19T14:03:58.592Z,24.66
2019-05-19T14:09:00.892Z,24.03
2019-05-19T14:14:05.007Z,23.99
2019-05-19T14:19:07.137Z,23.87
2019-05-19T14:24:09.673Z,23.89
2019-05-19T14:29:11.884Z,23.90
2019-05-19T14:34:14.487Z,23.69
2019-05-19T14:39:17.030Z,23.51
2019-05-19T14:44:19.093Z,23.25
2019-05-19T14:49:21.200Z,23.29
2019-05-19T14:54:23.260Z,23.53
2019-05-19T14:59:27.074Z,23.64
2019-05-19T15:04:29.227Z,23.88
2019-05-19T15:09:31.475Z,23.58
2019-05-19T15:14:33.568Z,23.46
2019-05-19T15:19:35.842Z,23.42
2019-05-19T15:24:38.027Z,23.39
2019-05-19T15:29:40.085Z,23.46
2019-05-19T15:34:42.364Z,23.49
2019-05-19T15:39:44.576Z,23.33
2019-05-19T15:44:46.704Z,23.28
2019-05-19T15:49:48.950Z,23.22
2019-05-19T15:54:51.630Z,23.16
2019-05-19T15:59:56.022Z,23.32
2019-05-19T16:04:58.238Z,23.57
2019-05-19T16:10:00.573Z,23.68
2019-05-19T16:15:06.299Z,23.78
2019-05-19T16:20:09.003Z,23.59
2019-05-19T16:25:12.051Z,23.46
2019-05-19T16:30:14.505Z,23.48
2019-05-19T16:35:16.762Z,23.45
2019-05-19T16:40:19.094Z,23.24
2019-05-19T16:45:21.325Z,22.94
2019-05-19T16:50:25.245Z,22.73
2019-05-19T16:55:29.310Z,22.69
2019-05-19T17:00:31.737Z,22.61
2019-05-19T17:05:34.719Z,22.72
2019-05-19T17:10:38.299Z,22.75
2019-05-19T17:15:40.645Z,22.65
2019-05-19T17:20:42.764Z,22.44
2019-05-19T17:25:46.435Z,22.45
2019-05-19T17:30:48.892Z,22.43
2019-05-19T17:35:50.846Z,22.48
2019-05-19T17:40:53.278Z,22.28
2019-05-19T17:45:55.935Z,22.21
2019-05-19T17:50:58.508Z,21.99
2019-05-19T17:56:02.505Z,21.91
2019-05-19T18:01:04.861Z,21.78
2019-05-19T18:06:07.172Z,21.64
2019-05-19T18:11:09.495Z,21.67
2019-05-19T18:16:13.417Z,21.64
2019-05-19T18:21:17.610Z,21.55
2019-05-19T18:26:19.954Z,21.50
2019-05-19T18:31:22.412Z,21.37
2019-05-19T18:36:24.876Z,21.28
2019-05-19T18:41:27.380Z,21.29
2019-05-19T18:46:29.422Z,21.30
2019-05-19T18:51:31.530Z,21.09
2019-05-19T18:56:33.828Z,21.02
2019-05-19T19:01:36.247Z,20.84
2019-05-19T19:06:38.640Z,20.96
2019-05-19T19:11:40.832Z,20.93
2019-05-19T19:16:43.030Z,20.94
2019-05-19T19:21:45.499Z,20.83
2019-05-19T19:26:47.739Z,20.92
2019-05-19T19:31:50.077Z,20.62
2019-05-19T19:36:52.483Z,20.48
2019-05-19T19:41:54.660Z,20.11
2019-05-19T19:46:56.658Z,19.87
2019-05-19T19:51:58.774Z,19.97
2019-05-19T19:57:00.889Z,19.70
2019-05-19T20:02:03.178Z,19.57
2019-05-19T20:07:05.539Z,19.70
2019-05-19T20:12:08.002Z,19.60
2019-05-19T20:17:12.051Z,19.39
2019-05-19T20:22:14.270Z,18.97
2019-05-19T20:27:16.609Z,18.90
2019-05-19T20:32:18.925Z,18.62
2019-05-19T20:37:21.137Z,18.55
2019-05-19T20:42:23.391Z,18.71
2019-05-19T20:47:25.596Z,18.77
2019-05-19T20:52:28.356Z,18.89
2019-05-19T20:57:30.795Z,18.39
2019-05-19T21:02:33.220Z,18.39
2019-05-19T21:07:35.550Z,18.41
2019-05-19T21:12:37.687Z,18.14
2019-05-19T21:17:39.699Z,18.02
2019-05-19T21:22:41.955Z,17.86
2019-05-19T21:27:43.927Z,17.62
2019-05-19T21:32:46.187Z,17.72
2019-05-19T21:37:48.326Z,17.63
2019-05-19T21:42:50.257Z,17.09
2019-05-19T21:47:52.340Z,17.27
2019-05-19T21:52:54.680Z,17.32
2019-05-19T21:57:56.709Z,16.85
2019-05-19T22:02:58.844Z,16.42
2019-05-19T22:08:02.875Z,16.61
2019-05-19T22:13:04.942Z,16.70
2019-05-19T22:18:07.110Z,16.77
2019-05-19T22:23:09.224Z,16.82
2019-05-19T22:28:11.537Z,16.86
2019-05-19T22:33:13.590Z,16.96
2019-05-19T22:38:15.690Z,17.06
2019-05-19T22:43:17.819Z,16.35
2019-05-19T22:48:20.013Z,16.30
2019-05-19T22:53:21.930Z,16.20
2019-05-19T22:58:23.979Z,16.18
2019-05-19T23:03:25.991Z,16.38
2019-05-19T23:08:28.324Z,16.43
2019-05-19T23:13:30.355Z,16.35
2019-05-19T23:18:32.562Z,16.19
2019-05-19T23:23:34.473Z,15.72
2019-05-19T23:28:36.374Z,15.77
2019-05-19T23:33:38.468Z,15.86
2019-05-19T23:38:40.619Z,15.76
2019-05-19T23:43:42.871Z,15.45
2019-05-19T23:48:44.951Z,15.30
2019-05-19T23:53:47.192Z,15.25
2019-05-19T23:58:49.253Z,15.30
